sensor_id;sensor_type;location;lat;lon;timestamp;temperature;humidity
2363;DHT22;64265;51.664;7.626;2023-04-24T00:00:09;22.40;71.20
2363;DHT22;64265;51.664;7.626;2023-04-24T00:02:36;22.40;71.20
2363;DHT22;64265;51.664;7.626;2023-04-24T00:05:04;22.40;71.20
2363;DHT22;64265;51.664;7.626;2023-04-24T00:07:32;22.40;71.30
2363;DHT22;64265;51.664;7.626;2023-04-24T00:09:59;22.30;71.20
2363;DHT22;64265;51.664;7.626;2023-04-24T00:12:26;22.40;71.40
2363;DHT22;64265;51.664;7.626;2023-04-24T00:14:53;22.30;71.20
2363;DHT22;64265;51.664;7.626;2023-04-24T00:17:20;22.30;71.30
2363;DHT22;64265;51.664;7.626;2023-04-24T00:19:47;22.30;71.30
2363;DHT22;64265;51.664;7.626;2023-04-24T00:22:13;22.30;71.30
2363;DHT22;64265;51.664;7.626;2023-04-24T00:24:42;22.30;71.30
2363;DHT22;64265;51.664;7.626;2023-04-24T00:27:08;22.30;71.30
2363;DHT22;64265;51.664;7.626;2023-04-24T00:29:35;22.30;71.30
2363;DHT22;64265;51.664;7.626;2023-04-24T00:32:02;22.20;71.30
2363;DHT22;64265;51.664;7.626;2023-04-24T00:34:29;22.20;71.20
2363;DHT22;64265;51.664;7.626;2023-04-24T00:36:57;22.20;71.30
2363;DHT22;64265;51.664;7.626;2023-04-24T00:39:24;22.20;71.30
2363;DHT22;64265;51.664;7.626;2023-04-24T00:41:52;22.20;72.10
2363;DHT22;64265;51.664;7.626;2023-04-24T00:44:20;22.20;71.30
2363;DHT22;64265;51.664;7.626;2023-04-24T00:46:47;22.20;71.30
2363;DHT22;64265;51.664;7.626;2023-04-24T00:49:18;22.20;71.40
2363;DHT22;64265;51.664;7.626;2023-04-24T00:51:44;22.20;71.40
2363;DHT22;64265;51.664;7.626;2023-04-24T00:54:12;22.20;71.40
2363;DHT22;64265;51.664;7.626;2023-04-24T00:56:39;22.10;71.30
2363;DHT22;64265;51.664;7.626;2023-04-24T00:59:08;22.10;71.40
2363;DHT22;64265;51.664;7.626;2023-04-24T01:01:35;22.10;71.40
2363;DHT22;64265;51.664;7.626;2023-04-24T01:04:02;22.10;71.40
2363;DHT22;64265;51.664;7.626;2023-04-24T01:06:29;22.10;71.40
2363;DHT22;64265;51.664;7.626;2023-04-24T01:08:58;22.10;71.40
2363;DHT22;64265;51.664;7.626;2023-04-24T01:11:25;22.00;71.30
2363;DHT22;64265;51.664;7.626;2023-04-24T01:13:52;22.00;71.40
2363;DHT22;64265;51.664;7.626;2023-04-24T01:16:20;22.00;71.30
2363;DHT22;64265;51.664;7.626;2023-04-24T01:18:47;22.00;71.40
2363;DHT22;64265;51.664;7.626;2023-04-24T01:21:15;22.00;71.40
2363;DHT22;64265;51.664;7.626;2023-04-24T01:23:43;22.00;71.50
2363;DHT22;64265;51.664;7.626;2023-04-24T01:26:10;22.00;71.40
2363;DHT22;64265;51.664;7.626;2023-04-24T01:28:37;22.00;72.30
2363;DHT22;64265;51.664;7.626;2023-04-24T01:31:04;21.90;71.40
2363;DHT22;64265;51.664;7.626;2023-04-24T01:33:31;21.90;71.40
2363;DHT22;64265;51.664;7.626;2023-04-24T01:35:59;21.90;71.40
2363;DHT22;64265;51.664;7.626;2023-04-24T01:38:26;21.90;71.50
2363;DHT22;64265;51.664;7.626;2023-04-24T01:40:54;21.90;71.40
2363;DHT22;64265;51.664;7.626;2023-04-24T01:43:21;21.90;71.50
2363;DHT22;64265;51.664;7.626;2023-04-24T01:45:48;21.90;71.50
2363;DHT22;64265;51.664;7.626;2023-04-24T01:48:14;21.90;71.50
2363;DHT22;64265;51.664;7.626;2023-04-24T01:50:42;21.90;71.50
2363;DHT22;64265;51.664;7.626;2023-04-24T01:53:09;21.80;71.40
2363;DHT22;64265;51.664;7.626;2023-04-24T01:55:36;21.80;71.50
2363;DHT22;64265;51.664;7.626;2023-04-24T01:58:05;21.80;71.50
2363;DHT22;64265;51.664;7.626;2023-04-24T02:00:31;21.80;71.50
2363;DHT22;64265;51.664;7.626;2023-04-24T02:02:58;21.80;71.50
2363;DHT22;64265;51.664;7.626;2023-04-24T02:05:27;21.80;71.50
2363;DHT22;64265;51.664;7.626;2023-04-24T02:07:54;21.80;71.50
2363;DHT22;64265;51.664;7.626;2023-04-24T02:10:20;21.80;71.60
2363;DHT22;64265;51.664;7.626;2023-04-24T02:12:47;21.80;71.60
2363;DHT22;64265;51.664;7.626;2023-04-24T02:15:15;21.80;71.60
2363;DHT22;64265;51.664;7.626;2023-04-24T02:17:43;21.80;71.60
2363;DHT22;64265;51.664;7.626;2023-04-24T02:20:10;21.80;71.70
2363;DHT22;64265;51.664;7.626;2023-04-24T02:22:37;21.70;71.60
2363;DHT22;64265;51.664;7.626;2023-04-24T02:25:04;21.70;71.60
2363;DHT22;64265;51.664;7.626;2023-04-24T02:27:31;21.70;71.50
2363;DHT22;64265;51.664;7.626;2023-04-24T02:29:57;21.70;71.50
2363;DHT22;64265;51.664;7.626;2023-04-24T02:32:25;21.70;71.60
2363;DHT22;64265;51.664;7.626;2023-04-24T02:34:52;21.70;71.70
2363;DHT22;64265;51.664;7.626;2023-04-24T02:37:19;21.70;71.70
2363;DHT22;64265;51.664;7.626;2023-04-24T02:39:45;21.70;71.70
2363;DHT22;64265;51.664;7.626;2023-04-24T02:42:12;21.70;71.70
2363;DHT22;64265;51.664;7.626;2023-04-24T02:44:39;21.60;71.60
2363;DHT22;64265;51.664;7.626;2023-04-24T02:47:06;21.60;71.60
2363;DHT22;64265;51.664;7.626;2023-04-24T02:49:35;21.60;71.60
2363;DHT22;64265;51.664;7.626;2023-04-24T02:52:02;21.60;71.50
2363;DHT22;64265;51.664;7.626;2023-04-24T02:54:28;21.60;71.60
2363;DHT22;64265;51.664;7.626;2023-04-24T02:56:55;21.60;71.60
2363;DHT22;64265;51.664;7.626;2023-04-24T02:59:22;21.60;71.60
2363;DHT22;64265;51.664;7.626;2023-04-24T03:01:48;21.60;71.60
2363;DHT22;64265;51.664;7.626;2023-04-24T03:04:15;21.60;71.60
2363;DHT22;64265;51.664;7.626;2023-04-24T03:06:46;21.60;71.60
2363;DHT22;64265;51.664;7.626;2023-04-24T03:09:13;21.60;71.70
2363;DHT22;64265;51.664;7.626;2023-04-24T03:11:40;21.50;71.60
2363;DHT22;64265;51.664;7.626;2023-04-24T03:14:07;21.50;71.60
2363;DHT22;64265;51.664;7.626;2023-04-24T03:16:33;21.50;71.60
2363;DHT22;64265;51.664;7.626;2023-04-24T03:19:00;21.50;71.60
2363;DHT22;64265;51.664;7.626;2023-04-24T03:21:27;21.50;71.60
2363;DHT22;64265;51.664;7.626;2023-04-24T03:23:55;21.50;71.60
2363;DHT22;64265;51.664;7.626;2023-04-24T03:26:22;21.50;71.60
2363;DHT22;64265;51.664;7.626;2023-04-24T03:28:48;21.50;71.60
2363;DHT22;64265;51.664;7.626;2023-04-24T03:31:15;21.50;71.60
2363;DHT22;64265;51.664;7.626;2023-04-24T03:33:42;21.50;71.60
2363;DHT22;64265;51.664;7.626;2023-04-24T03:36:09;21.50;71.70
2363;DHT22;64265;51.664;7.626;2023-04-24T03:38:35;21.40;71.50
2363;DHT22;64265;51.664;7.626;2023-04-24T03:41:03;21.50;71.60
2363;DHT22;64265;51.664;7.626;2023-04-24T03:43:30;21.40;71.50
2363;DHT22;64265;51.664;7.626;2023-04-24T03:45:58;21.40;71.50
2363;DHT22;64265;51.664;7.626;2023-04-24T03:48:25;21.40;71.50
2363;DHT22;64265;51.664;7.626;2023-04-24T03:50:52;21.40;71.50
2363;DHT22;64265;51.664;7.626;2023-04-24T03:53:18;21.40;72.30
2363;DHT22;64265;51.664;7.626;2023-04-24T03:55:45;21.40;71.50
2363;DHT22;64265;51.664;7.626;2023-04-24T03:58:13;21.40;71.60
2363;DHT22;64265;51.664;7.626;2023-04-24T04:00:40;21.40;71.50
2363;DHT22;64265;51.664;7.626;2023-04-24T04:03:07;21.40;71.60
2363;DHT22;64265;51.664;7.626;2023-04-24T04:05:34;21.40;71.60
2363;DHT22;64265;51.664;7.626;2023-04-24T04:08:00;21.40;71.70
2363;DHT22;64265;51.664;7.626;2023-04-24T04:10:27;21.30;71.60
2363;DHT22;64265;51.664;7.626;2023-04-24T04:12:54;21.30;71.50
2363;DHT22;64265;51.664;7.626;2023-04-24T04:15:22;21.40;71.60
2363;DHT22;64265;51.664;7.626;2023-04-24T04:17:48;21.40;71.70
2363;DHT22;64265;51.664;7.626;2023-04-24T04:20:15;21.30;71.50
2363;DHT22;64265;51.664;7.626;2023-04-24T04:22:42;21.30;71.60
2363;DHT22;64265;51.664;7.626;2023-04-24T04:25:09;21.30;71.50
2363;DHT22;64265;51.664;7.626;2023-04-24T04:27:36;21.30;71.50
2363;DHT22;64265;51.664;7.626;2023-04-24T04:30:05;21.30;71.50
2363;DHT22;64265;51.664;7.626;2023-04-24T04:32:33;21.30;71.50
2363;DHT22;64265;51.664;7.626;2023-04-24T04:35:00;21.30;71.50
2363;DHT22;64265;51.664;7.626;2023-04-24T04:37:29;21.30;71.70
2363;DHT22;64265;51.664;7.626;2023-04-24T04:39:56;21.30;71.60
2363;DHT22;64265;51.664;7.626;2023-04-24T04:42:23;21.30;71.60
2363;DHT22;64265;51.664;7.626;2023-04-24T04:44:50;21.30;71.70
2363;DHT22;64265;51.664;7.626;2023-04-24T04:47:16;21.20;71.60
2363;DHT22;64265;51.664;7.626;2023-04-24T04:49:45;21.20;71.50
2363;DHT22;64265;51.664;7.626;2023-04-24T04:52:11;21.20;71.50
2363;DHT22;64265;51.664;7.626;2023-04-24T04:54:38;21.20;71.60
2363;DHT22;64265;51.664;7.626;2023-04-24T04:57:05;21.20;71.50
2363;DHT22;64265;51.664;7.626;2023-04-24T04:59:32;21.20;71.50
2363;DHT22;64265;51.664;7.626;2023-04-24T05:01:58;21.20;71.60
2363;DHT22;64265;51.664;7.626;2023-04-24T05:04:25;21.20;71.60
2363;DHT22;64265;51.664;7.626;2023-04-24T05:06:54;21.20;71.60
2363;DHT22;64265;51.664;7.626;2023-04-24T05:09:20;21.20;71.70
2363;DHT22;64265;51.664;7.626;2023-04-24T05:11:47;21.20;71.60
2363;DHT22;64265;51.664;7.626;2023-04-24T05:14:14;21.10;71.50
2363;DHT22;64265;51.664;7.626;2023-04-24T05:16:40;21.20;71.70
2363;DHT22;64265;51.664;7.626;2023-04-24T05:19:07;21.20;71.80
2363;DHT22;64265;51.664;7.626;2023-04-24T05:21:34;21.20;71.70
2363;DHT22;64265;51.664;7.626;2023-04-24T05:24:02;21.20;71.50
2363;DHT22;64265;51.664;7.626;2023-04-24T05:26:29;21.20;71.50
2363;DHT22;64265;51.664;7.626;2023-04-24T05:28:55;21.20;71.50
2363;DHT22;64265;51.664;7.626;2023-04-24T05:31:22;21.30;71.40
2363;DHT22;64265;51.664;7.626;2023-04-24T05:33:49;21.30;71.50
2363;DHT22;64265;51.664;7.626;2023-04-24T05:36:15;21.30;71.50
2363;DHT22;64265;51.664;7.626;2023-04-24T05:38:42;21.30;71.40
2363;DHT22;64265;51.664;7.626;2023-04-24T05:41:10;21.30;71.40
2363;DHT22;64265;51.664;7.626;2023-04-24T05:43:37;21.30;71.40
2363;DHT22;64265;51.664;7.626;2023-04-24T05:46:04;21.30;71.40
2363;DHT22;64265;51.664;7.626;2023-04-24T05:48:30;21.30;71.40
2363;DHT22;64265;51.664;7.626;2023-04-24T05:50:57;21.40;71.50
2363;DHT22;64265;51.664;7.626;2023-04-24T05:53:24;21.30;71.40
2363;DHT22;64265;51.664;7.626;2023-04-24T05:55:50;21.40;71.50
2363;DHT22;64265;51.664;7.626;2023-04-24T05:58:18;21.30;71.40
2363;DHT22;64265;51.664;7.626;2023-04-24T06:00:45;21.30;71.40
2363;DHT22;64265;51.664;7.626;2023-04-24T06:03:12;21.40;71.50
2363;DHT22;64265;51.664;7.626;2023-04-24T06:05:39;21.40;71.30
2363;DHT22;64265;51.664;7.626;2023-04-24T06:08:05;21.40;71.30
2363;DHT22;64265;51.664;7.626;2023-04-24T06:10:32;21.40;71.30
2363;DHT22;64265;51.664;7.626;2023-04-24T06:12:59;21.40;71.30
2363;DHT22;64265;51.664;7.626;2023-04-24T06:15:29;21.40;71.30
2363;DHT22;64265;51.664;7.626;2023-04-24T06:17:56;21.50;72.20
2363;DHT22;64265;51.664;7.626;2023-04-24T06:20:23;21.50;71.40
2363;DHT22;64265;51.664;7.626;2023-04-24T06:22:50;21.50;71.30
2363;DHT22;64265;51.664;7.626;2023-04-24T06:25:17;21.50;71.20
2363;DHT22;64265;51.664;7.626;2023-04-24T06:27:44;21.60;71.30
2363;DHT22;64265;51.664;7.626;2023-04-24T06:30:11;21.50;71.20
2363;DHT22;64265;51.664;7.626;2023-04-24T06:32:39;21.60;71.40
2363;DHT22;64265;51.664;7.626;2023-04-24T06:35:07;21.60;71.30
2363;DHT22;64265;51.664;7.626;2023-04-24T06:37:35;21.60;71.30
2363;DHT22;64265;51.664;7.626;2023-04-24T06:40:02;21.60;71.20
2363;DHT22;64265;51.664;7.626;2023-04-24T06:42:28;21.60;71.20
2363;DHT22;64265;51.664;7.626;2023-04-24T06:44:55;21.60;71.20
2363;DHT22;64265;51.664;7.626;2023-04-24T06:47:22;21.60;71.20
2363;DHT22;64265;51.664;7.626;2023-04-24T06:49:50;21.60;71.20
2363;DHT22;64265;51.664;7.626;2023-04-24T06:52:18;21.60;71.10
2363;DHT22;64265;51.664;7.626;2023-04-24T06:54:44;21.60;72.00
2363;DHT22;64265;51.664;7.626;2023-04-24T06:57:11;21.60;71.20
2363;DHT22;64265;51.664;7.626;2023-04-24T06:59:38;21.60;71.10
2363;DHT22;64265;51.664;7.626;2023-04-24T07:02:05;21.60;71.20
2363;DHT22;64265;51.664;7.626;2023-04-24T07:04:32;21.60;71.10
2363;DHT22;64265;51.664;7.626;2023-04-24T07:07:00;21.60;71.10
2363;DHT22;64265;51.664;7.626;2023-04-24T07:09:27;21.60;71.10
2363;DHT22;64265;51.664;7.626;2023-04-24T07:11:54;21.60;71.10
2363;DHT22;64265;51.664;7.626;2023-04-24T07:14:21;21.60;71.10
2363;DHT22;64265;51.664;7.626;2023-04-24T07:16:48;21.60;71.10
2363;DHT22;64265;51.664;7.626;2023-04-24T07:19:15;21.60;71.10
2363;DHT22;64265;51.664;7.626;2023-04-24T07:21:42;21.60;71.10
2363;DHT22;64265;51.664;7.626;2023-04-24T07:24:10;21.60;71.10
2363;DHT22;64265;51.664;7.626;2023-04-24T07:26:38;21.60;71.00
2363;DHT22;64265;51.664;7.626;2023-04-24T07:29:05;21.60;71.20
2363;DHT22;64265;51.664;7.626;2023-04-24T07:31:32;21.60;71.70
2363;DHT22;64265;51.664;7.626;2023-04-24T07:33:59;21.60;71.60
2363;DHT22;64265;51.664;7.626;2023-04-24T07:36:25;21.60;71.50
2363;DHT22;64265;51.664;7.626;2023-04-24T07:38:54;21.60;71.80
2363;DHT22;64265;51.664;7.626;2023-04-24T07:41:22;21.60;72.10
2363;DHT22;64265;51.664;7.626;2023-04-24T07:43:49;21.60;72.70
2363;DHT22;64265;51.664;7.626;2023-04-24T07:46:16;21.50;72.20
2363;DHT22;64265;51.664;7.626;2023-04-24T07:48:43;21.40;71.10
2363;DHT22;64265;51.664;7.626;2023-04-24T07:51:09;21.50;71.90
2363;DHT22;64265;51.664;7.626;2023-04-24T07:53:38;21.50;70.50
2363;DHT22;64265;51.664;7.626;2023-04-24T07:56:05;21.50;70.60
2363;DHT22;64265;51.664;7.626;2023-04-24T07:58:33;21.50;70.50
2363;DHT22;64265;51.664;7.626;2023-04-24T08:01:00;21.50;70.60
2363;DHT22;64265;51.664;7.626;2023-04-24T08:03:27;21.50;70.30
2363;DHT22;64265;51.664;7.626;2023-04-24T08:05:53;21.60;70.40
2363;DHT22;64265;51.664;7.626;2023-04-24T08:08:21;21.60;70.40
2363;DHT22;64265;51.664;7.626;2023-04-24T08:10:48;21.60;70.40
2363;DHT22;64265;51.664;7.626;2023-04-24T08:13:15;21.60;70.30
2363;DHT22;64265;51.664;7.626;2023-04-24T08:15:43;21.60;70.30
2363;DHT22;64265;51.664;7.626;2023-04-24T08:18:10;21.60;70.30
2363;DHT22;64265;51.664;7.626;2023-04-24T08:20:38;21.70;70.30
2363;DHT22;64265;51.664;7.626;2023-04-24T08:23:05;21.70;70.20
2363;DHT22;64265;51.664;7.626;2023-04-24T08:25:32;21.70;70.30
2363;DHT22;64265;51.664;7.626;2023-04-24T08:28:01;21.70;70.30
2363;DHT22;64265;51.664;7.626;2023-04-24T08:30:28;21.70;70.40
2363;DHT22;64265;51.664;7.626;2023-04-24T08:32:56;21.70;70.30
2363;DHT22;64265;51.664;7.626;2023-04-24T08:35:23;21.70;70.30
2363;DHT22;64265;51.664;7.626;2023-04-24T08:37:51;21.70;70.30
2363;DHT22;64265;51.664;7.626;2023-04-24T08:40:22;21.70;70.30
2363;DHT22;64265;51.664;7.626;2023-04-24T08:42:50;21.70;70.30
2363;DHT22;64265;51.664;7.626;2023-04-24T08:45:20;21.70;70.30
2363;DHT22;64265;51.664;7.626;2023-04-24T08:47:47;21.70;70.30
2363;DHT22;64265;51.664;7.626;2023-04-24T08:50:16;21.70;70.30
2363;DHT22;64265;51.664;7.626;2023-04-24T08:52:43;21.70;70.30
2363;DHT22;64265;51.664;7.626;2023-04-24T08:55:10;21.70;70.30
2363;DHT22;64265;51.664;7.626;2023-04-24T08:57:37;21.70;70.30
2363;DHT22;64265;51.664;7.626;2023-04-24T09:00:07;21.70;70.30
2363;DHT22;64265;51.664;7.626;2023-04-24T09:02:34;21.70;70.30
2363;DHT22;64265;51.664;7.626;2023-04-24T09:05:01;21.80;70.40
2363;DHT22;64265;51.664;7.626;2023-04-24T09:07:30;21.70;70.30
2363;DHT22;64265;51.664;7.626;2023-04-24T09:10:02;21.80;70.40
2363;DHT22;64265;51.664;7.626;2023-04-24T09:12:28;21.70;70.20
2363;DHT22;64265;51.664;7.626;2023-04-24T09:14:56;21.80;70.30
2363;DHT22;64265;51.664;7.626;2023-04-24T09:17:24;21.70;70.20
2363;DHT22;64265;51.664;7.626;2023-04-24T09:19:53;21.80;70.40
2363;DHT22;64265;51.664;7.626;2023-04-24T09:22:21;21.80;70.40
2363;DHT22;64265;51.664;7.626;2023-04-24T09:24:59;21.80;70.60
2363;DHT22;64265;51.664;7.626;2023-04-24T09:27:28;21.70;71.10
2363;DHT22;64265;51.664;7.626;2023-04-24T09:29:55;21.80;71.00
2363;DHT22;64265;51.664;7.626;2023-04-24T09:32:23;21.70;70.80
2363;DHT22;64265;51.664;7.626;2023-04-24T09:35:05;21.70;70.70
2363;DHT22;64265;51.664;7.626;2023-04-24T09:37:35;21.70;70.70
2363;DHT22;64265;51.664;7.626;2023-04-24T09:40:11;21.70;70.40
2363;DHT22;64265;51.664;7.626;2023-04-24T09:42:38;21.70;70.60
2363;DHT22;64265;51.664;7.626;2023-04-24T09:45:09;21.70;70.70
2363;DHT22;64265;51.664;7.626;2023-04-24T09:47:36;21.80;70.90
2363;DHT22;64265;51.664;7.626;2023-04-24T09:50:09;21.80;71.00
2363;DHT22;64265;51.664;7.626;2023-04-24T09:52:40;21.80;71.00
2363;DHT22;64265;51.664;7.626;2023-04-24T09:55:13;21.80;70.90
2363;DHT22;64265;51.664;7.626;2023-04-24T09:57:47;21.80;70.90
2363;DHT22;64265;51.664;7.626;2023-04-24T10:00:18;21.80;70.90
2363;DHT22;64265;51.664;7.626;2023-04-24T10:02:50;21.80;70.90
2363;DHT22;64265;51.664;7.626;2023-04-24T10:05:17;21.80;70.90
2363;DHT22;64265;51.664;7.626;2023-04-24T10:07:44;21.90;71.00
2363;DHT22;64265;51.664;7.626;2023-04-24T10:10:13;21.90;71.20
2363;DHT22;64265;51.664;7.626;2023-04-24T10:12:40;21.90;71.90
2363;DHT22;64265;51.664;7.626;2023-04-24T10:15:09;21.90;71.70
2363;DHT22;64265;51.664;7.626;2023-04-24T10:17:38;21.90;71.60
2363;DHT22;64265;51.664;7.626;2023-04-24T10:20:06;22.00;71.60
2363;DHT22;64265;51.664;7.626;2023-04-24T10:22:33;22.00;71.60
2363;DHT22;64265;51.664;7.626;2023-04-24T10:25:03;22.00;71.70
2363;DHT22;64265;51.664;7.626;2023-04-24T10:27:32;22.10;71.70
2363;DHT22;64265;51.664;7.626;2023-04-24T10:30:02;22.10;71.70
2363;DHT22;64265;51.664;7.626;2023-04-24T10:32:28;22.10;71.70
2363;DHT22;64265;51.664;7.626;2023-04-24T10:34:55;22.10;71.70
2363;DHT22;64265;51.664;7.626;2023-04-24T10:37:23;22.20;71.70
2363;DHT22;64265;51.664;7.626;2023-04-24T10:39:50;22.20;71.70
2363;DHT22;64265;51.664;7.626;2023-04-24T10:42:20;22.20;71.70
2363;DHT22;64265;51.664;7.626;2023-04-24T10:44:48;22.20;71.60
2363;DHT22;64265;51.664;7.626;2023-04-24T10:47:15;22.20;71.70
2363;DHT22;64265;51.664;7.626;2023-04-24T10:49:42;22.30;71.70
2363;DHT22;64265;51.664;7.626;2023-04-24T10:52:09;22.30;71.70
2363;DHT22;64265;51.664;7.626;2023-04-24T10:54:42;22.30;71.70
2363;DHT22;64265;51.664;7.626;2023-04-24T10:57:27;22.30;71.60
2363;DHT22;64265;51.664;7.626;2023-04-24T11:00:14;22.40;71.70
2363;DHT22;64265;51.664;7.626;2023-04-24T11:02:41;22.40;71.70
2363;DHT22;64265;51.664;7.626;2023-04-24T11:05:15;22.40;71.60
2363;DHT22;64265;51.664;7.626;2023-04-24T11:08:11;22.40;71.70
2363;DHT22;64265;51.664;7.626;2023-04-24T11:10:39;22.40;71.60
2363;DHT22;64265;51.664;7.626;2023-04-24T11:13:06;22.50;71.70
2363;DHT22;64265;51.664;7.626;2023-04-24T11:15:35;22.50;71.70
2363;DHT22;64265;51.664;7.626;2023-04-24T11:18:01;22.50;71.70
2363;DHT22;64265;51.664;7.626;2023-04-24T11:20:28;22.50;71.70
2363;DHT22;64265;51.664;7.626;2023-04-24T11:23:00;22.50;71.70
2363;DHT22;64265;51.664;7.626;2023-04-24T11:25:30;22.50;71.60
2363;DHT22;64265;51.664;7.626;2023-04-24T11:28:03;22.50;71.60
2363;DHT22;64265;51.664;7.626;2023-04-24T11:30:31;22.50;71.60
2363;DHT22;64265;51.664;7.626;2023-04-24T11:33:05;22.50;71.60
2363;DHT22;64265;51.664;7.626;2023-04-24T11:35:38;22.60;71.70
2363;DHT22;64265;51.664;7.626;2023-04-24T11:38:06;22.60;71.60
2363;DHT22;64265;51.664;7.626;2023-04-24T11:40:34;22.60;72.40
2363;DHT22;64265;51.664;7.626;2023-04-24T11:43:00;22.60;71.60
2363;DHT22;64265;51.664;7.626;2023-04-24T11:45:28;22.60;71.60
2363;DHT22;64265;51.664;7.626;2023-04-24T11:47:56;22.60;71.60
2363;DHT22;64265;51.664;7.626;2023-04-24T11:50:26;22.60;71.60
2363;DHT22;64265;51.664;7.626;2023-04-24T11:52:55;22.70;71.70
2363;DHT22;64265;51.664;7.626;2023-04-24T11:55:27;22.70;71.70
2363;DHT22;64265;51.664;7.626;2023-04-24T11:57:55;22.70;71.60
2363;DHT22;64265;51.664;7.626;2023-04-24T12:00:24;22.70;71.70
2363;DHT22;64265;51.664;7.626;2023-04-24T12:03:02;22.70;71.70
2363;DHT22;64265;51.664;7.626;2023-04-24T12:05:31;22.70;71.70
2363;DHT22;64265;51.664;7.626;2023-04-24T12:07:59;22.70;71.70
2363;DHT22;64265;51.664;7.626;2023-04-24T12:10:27;22.70;71.70
2363;DHT22;64265;51.664;7.626;2023-04-24T12:12:56;22.70;71.70
2363;DHT22;64265;51.664;7.626;2023-04-24T12:15:24;22.70;71.60
2363;DHT22;64265;51.664;7.626;2023-04-24T12:17:52;22.70;71.60
2363;DHT22;64265;51.664;7.626;2023-04-24T12:20:24;22.70;71.40
2363;DHT22;64265;51.664;7.626;2023-04-24T12:22:53;22.70;71.40
2363;DHT22;64265;51.664;7.626;2023-04-24T12:25:21;22.70;71.40
2363;DHT22;64265;51.664;7.626;2023-04-24T12:27:53;22.70;71.20
2363;DHT22;64265;51.664;7.626;2023-04-24T12:30:20;22.80;71.30
2363;DHT22;64265;51.664;7.626;2023-04-24T12:32:48;22.70;71.10
2363;DHT22;64265;51.664;7.626;2023-04-24T12:35:19;22.80;71.20
2363;DHT22;64265;51.664;7.626;2023-04-24T12:37:47;22.70;71.00
2363;DHT22;64265;51.664;7.626;2023-04-24T12:40:16;22.70;70.90
2363;DHT22;64265;51.664;7.626;2023-04-24T12:42:45;22.80;71.10
2363;DHT22;64265;51.664;7.626;2023-04-24T12:45:12;22.80;71.00
2363;DHT22;64265;51.664;7.626;2023-04-24T12:47:40;22.80;71.00
2363;DHT22;64265;51.664;7.626;2023-04-24T12:50:07;22.80;70.90
2363;DHT22;64265;51.664;7.626;2023-04-24T12:52:35;22.80;71.00
2363;DHT22;64265;51.664;7.626;2023-04-24T12:55:02;22.80;70.90
2363;DHT22;64265;51.664;7.626;2023-04-24T12:57:31;22.80;70.80
2363;DHT22;64265;51.664;7.626;2023-04-24T12:59:58;22.80;71.00
2363;DHT22;64265;51.664;7.626;2023-04-24T13:02:27;22.80;70.70
2363;DHT22;64265;51.664;7.626;2023-04-24T13:04:54;22.80;70.90
2363;DHT22;64265;51.664;7.626;2023-04-24T13:07:21;22.80;70.80
2363;DHT22;64265;51.664;7.626;2023-04-24T13:09:49;22.80;70.70
2363;DHT22;64265;51.664;7.626;2023-04-24T13:12:16;22.80;70.70
2363;DHT22;64265;51.664;7.626;2023-04-24T13:14:44;22.80;70.80
2363;DHT22;64265;51.664;7.626;2023-04-24T13:17:10;22.80;70.70
2363;DHT22;64265;51.664;7.626;2023-04-24T13:19:40;22.80;70.70
2363;DHT22;64265;51.664;7.626;2023-04-24T13:22:08;22.80;70.70
2363;DHT22;64265;51.664;7.626;2023-04-24T13:24:35;22.80;70.70
2363;DHT22;64265;51.664;7.626;2023-04-24T13:27:02;22.80;70.70
2363;DHT22;64265;51.664;7.626;2023-04-24T13:29:29;22.80;70.70
2363;DHT22;64265;51.664;7.626;2023-04-24T13:31:57;22.80;70.60
2363;DHT22;64265;51.664;7.626;2023-04-24T13:34:24;22.80;70.80
2363;DHT22;64265;51.664;7.626;2023-04-24T13:36:52;22.80;70.60
2363;DHT22;64265;51.664;7.626;2023-04-24T13:39:19;22.90;70.90
2363;DHT22;64265;51.664;7.626;2023-04-24T13:41:46;22.90;70.80
2363;DHT22;64265;51.664;7.626;2023-04-24T13:44:14;22.90;70.90
2363;DHT22;64265;51.664;7.626;2023-04-24T13:46:40;22.90;70.70
2363;DHT22;64265;51.664;7.626;2023-04-24T13:49:10;22.90;70.80
2363;DHT22;64265;51.664;7.626;2023-04-24T13:51:37;22.90;70.80
2363;DHT22;64265;51.664;7.626;2023-04-24T13:54:04;22.90;71.00
2363;DHT22;64265;51.664;7.626;2023-04-24T13:56:31;22.90;70.90
2363;DHT22;64265;51.664;7.626;2023-04-24T13:58:57;22.90;71.00
2363;DHT22;64265;51.664;7.626;2023-04-24T14:01:24;22.90;71.10
2363;DHT22;64265;51.664;7.626;2023-04-24T14:03:51;22.90;71.20
2363;DHT22;64265;51.664;7.626;2023-04-24T14:06:20;22.90;71.30
2363;DHT22;64265;51.664;7.626;2023-04-24T14:08:47;22.90;71.30
2363;DHT22;64265;51.664;7.626;2023-04-24T14:11:14;22.90;71.30
2363;DHT22;64265;51.664;7.626;2023-04-24T14:13:41;22.90;71.30
2363;DHT22;64265;51.664;7.626;2023-04-24T14:16:09;22.90;71.40
2363;DHT22;64265;51.664;7.626;2023-04-24T14:18:36;22.90;71.40
2363;DHT22;64265;51.664;7.626;2023-04-24T14:21:03;22.90;71.40
2363;DHT22;64265;51.664;7.626;2023-04-24T14:23:31;22.90;71.50
2363;DHT22;64265;51.664;7.626;2023-04-24T14:25:58;22.90;71.50
2363;DHT22;64265;51.664;7.626;2023-04-24T14:28:25;22.90;71.50
2363;DHT22;64265;51.664;7.626;2023-04-24T14:30:52;23.00;71.70
2363;DHT22;64265;51.664;7.626;2023-04-24T14:33:19;23.00;71.70
2363;DHT22;64265;51.664;7.626;2023-04-24T14:35:46;22.90;71.60
2363;DHT22;64265;51.664;7.626;2023-04-24T14:38:12;23.00;71.80
2363;DHT22;64265;51.664;7.626;2023-04-24T14:40:41;22.90;71.80
2363;DHT22;64265;51.664;7.626;2023-04-24T14:43:08;23.00;71.80
2363;DHT22;64265;51.664;7.626;2023-04-24T14:45:34;23.00;71.90
2363;DHT22;64265;51.664;7.626;2023-04-24T14:48:03;23.00;71.90
2363;DHT22;64265;51.664;7.626;2023-04-24T14:50:30;23.10;72.20
2363;DHT22;64265;51.664;7.626;2023-04-24T14:52:56;23.10;72.30
2363;DHT22;64265;51.664;7.626;2023-04-24T14:55:23;23.00;72.30
2363;DHT22;64265;51.664;7.626;2023-04-24T14:57:52;23.00;72.20
2363;DHT22;64265;51.664;7.626;2023-04-24T15:00:21;23.00;72.40
2363;DHT22;64265;51.664;7.626;2023-04-24T15:02:49;23.10;72.40
2363;DHT22;64265;51.664;7.626;2023-04-24T15:05:16;23.10;72.30
2363;DHT22;64265;51.664;7.626;2023-04-24T15:07:42;23.10;72.40
2363;DHT22;64265;51.664;7.626;2023-04-24T15:10:10;23.10;72.30
2363;DHT22;64265;51.664;7.626;2023-04-24T15:12:37;23.10;72.30
2363;DHT22;64265;51.664;7.626;2023-04-24T15:15:07;23.10;72.40
2363;DHT22;64265;51.664;7.626;2023-04-24T15:17:34;23.00;72.20
2363;DHT22;64265;51.664;7.626;2023-04-24T15:20:01;23.10;72.40
2363;DHT22;64265;51.664;7.626;2023-04-24T15:22:29;23.10;72.30
2363;DHT22;64265;51.664;7.626;2023-04-24T15:24:55;23.10;72.30
2363;DHT22;64265;51.664;7.626;2023-04-24T15:27:22;23.10;72.30
2363;DHT22;64265;51.664;7.626;2023-04-24T15:29:49;23.10;72.30
2363;DHT22;64265;51.664;7.626;2023-04-24T15:32:17;23.10;72.30
2363;DHT22;64265;51.664;7.626;2023-04-24T15:34:43;23.10;72.30
2363;DHT22;64265;51.664;7.626;2023-04-24T15:37:10;23.10;72.10
2363;DHT22;64265;51.664;7.626;2023-04-24T15:39:37;23.10;72.10
2363;DHT22;64265;51.664;7.626;2023-04-24T15:42:04;23.10;72.30
2363;DHT22;64265;51.664;7.626;2023-04-24T15:44:31;23.10;72.20
2363;DHT22;64265;51.664;7.626;2023-04-24T15:47:00;23.10;72.20